.
WxDataArchive / Data Records for 2007-07-14
2007-07-13 July 2007 2007-07-15

Data Records for Saturday, 14 July 2007

Time	Temp	Chill	HIndex	Humid	Dewpt	 Wind 	HiWind	WindDir	Rain 	Barom 
-----	----	-----	------	-----	-----	------	------	-------	-----	----- 
00:00	57.3	57.3	57.3	77	50.1	0	0	---	0.00	29.906 
00:05	57.2	57.2	57.2	77	50.1	0	0	---	0.00	29.906 
00:10	57.0	57.0	57.0	77	49.9	0	0	---	0.00	29.905 
00:15	57.0	57.0	57.0	79	50.5	0	0	---	0.00	29.902 
00:20	56.9	56.9	56.9	80	50.8	0	0	---	0.00	29.902 
00:25	56.7	56.7	56.7	81	50.9	0	0	---	0.00	29.902 
00:30	56.7	56.7	56.7	82	51.3	0	0	---	0.00	29.902 
00:35	56.6	56.6	56.6	82	51.2	0	0	---	0.00	29.903 
00:40	56.5	56.5	56.5	83	51.4	0	0	---	0.00	29.902 
00:45	56.3	56.3	56.3	83	51.2	0	0	---	0.00	29.902 
00:50	56.2	56.2	56.2	83	51.1	0	0	---	0.00	29.900 
00:55	56.0	56.0	56.0	83	50.9	0	0	---	0.00	29.901 
01:00	55.9	55.9	55.9	83	50.8	0	0	---	0.00	29.897 
01:05	55.7	55.7	55.7	83	50.6	0	0	---	0.00	29.896 
01:10	55.7	55.7	55.7	84	50.9	0	0	---	0.00	29.895 
01:15	55.6	55.6	55.6	84	50.8	0	0	---	0.00	29.893 
01:20	55.6	55.6	55.6	84	50.8	0	0	---	0.00	29.893 
01:25	55.4	55.4	55.4	84	50.6	0	0	---	0.00	29.895 
01:30	55.3	55.3	55.3	84	50.5	0	0	---	0.00	29.894 
01:35	55.3	55.3	55.3	84	50.5	0	0	---	0.00	29.893 
01:40	55.1	55.1	55.1	84	50.4	0	0	---	0.00	29.892 
01:45	55.1	55.1	55.1	85	50.7	0	0	---	0.00	29.892 
01:50	55.1	55.1	55.1	85	50.7	0	0	---	0.00	29.892 
01:55	55.0	55.0	55.0	85	50.6	0	0	---	0.00	29.890 
02:00	55.0	55.0	55.0	85	50.6	0	0	---	0.00	29.889 
02:05	55.0	55.0	55.0	85	50.6	0	0	---	0.00	29.883 
02:10	54.8	54.8	54.8	85	50.4	0	0	---	0.00	29.882 
02:15	54.8	54.8	54.8	86	50.7	0	0	---	0.00	29.878 
02:20	54.8	54.8	54.8	87	51.0	0	0	---	0.00	29.877 
02:25	54.8	54.8	54.8	88	51.3	0	0	---	0.00	29.876 
02:30	54.8	54.8	54.8	88	51.3	0	0	---	0.00	29.876 
02:35	54.7	54.7	54.7	88	51.2	0	0	---	0.00	29.874 
02:40	54.7	54.7	54.7	88	51.2	0	0	---	0.00	29.874 
02:45	54.7	54.7	54.7	88	51.2	0	0	---	0.00	29.870 
02:50	54.7	54.7	54.7	88	51.2	0	0	---	0.00	29.867 
02:55	54.7	54.7	54.7	88	51.2	0	0	---	0.00	29.865 
03:00	54.7	54.7	54.7	89	51.5	0	0	---	0.00	29.863 
03:05	54.7	54.7	54.7	89	51.5	0	0	---	0.00	29.862 
03:10	54.8	54.8	54.8	89	51.6	0	0	---	0.00	29.862 
03:15	54.8	54.8	54.8	89	51.6	0	0	---	0.00	29.861 
03:20	54.8	54.8	54.8	89	51.6	0	0	---	0.00	29.860 
03:25	54.8	54.8	54.8	89	51.6	0	0	---	0.00	29.860 
03:30	54.8	54.8	54.8	89	51.6	0	0	---	0.00	29.861 
03:35	54.8	54.8	54.8	88	51.3	0	0	---	0.00	29.860 
03:40	54.7	54.7	54.7	88	51.2	0	0	---	0.00	29.860 
03:45	54.7	54.7	54.7	88	51.2	0	0	---	0.00	29.861 
03:50	54.7	54.7	54.7	88	51.2	0	0	---	0.00	29.860 
03:55	54.7	54.7	54.7	88	51.2	0	0	---	0.00	29.860 
04:00	54.5	54.5	54.5	88	51.0	0	0	---	0.00	29.859 
04:05	54.7	54.7	54.7	88	51.2	0	0	---	0.00	29.857 
04:10	54.7	54.7	54.7	88	51.2	0	0	---	0.00	29.855 
04:15	54.7	54.7	54.7	88	51.2	0	0	---	0.00	29.854 
04:20	54.8	54.8	54.8	88	51.3	0	0	---	0.00	29.854 
04:25	54.8	54.8	54.8	87	51.0	0	0	---	0.00	29.853 
04:30	55.0	55.0	55.0	87	51.2	0	0	---	0.00	29.850 
04:35	55.1	55.1	55.1	87	51.3	0	0	---	0.00	29.849 
04:40	55.3	55.3	55.3	86	51.2	0	0	---	0.00	29.849 
04:45	55.4	55.4	55.4	86	51.3	0	1	315	0.00	29.850 
04:50	55.7	55.7	55.7	85	51.3	0	1	315	0.00	29.849 
04:55	56.0	56.0	56.0	85	51.6	0	1	315	0.00	29.849 
05:00	56.3	56.3	56.3	84	51.5	0	1	315	0.00	29.846 
05:05	56.5	56.5	56.5	83	51.4	0	1	315	0.00	29.844 
05:10	56.7	56.7	56.7	82	51.3	0	2	292	0.00	29.842 
05:15	56.9	56.9	56.9	82	51.5	0	2	292	0.00	29.843 
05:20	57.5	57.5	57.5	81	51.7	0	2	292	0.00	29.843 
05:25	57.8	57.8	57.8	80	51.7	0	1	292	0.00	29.843 
05:30	58.1	58.1	58.1	79	51.6	0	1	292	0.00	29.842 
05:35	58.3	58.3	58.3	78	51.5	0	2	248	0.00	29.842 
05:40	58.6	58.6	58.6	77	51.4	0	2	248	0.00	29.842 
05:45	58.9	58.9	58.9	77	51.7	0	1	248	0.00	29.841 
05:50	58.9	58.9	58.9	77	51.7	0	1	248	0.00	29.841 
05:55	59.0	59.0	59.0	77	51.8	0	1	248	0.00	29.841 
06:00	59.3	59.3	59.3	76	51.7	0	1	248	0.00	29.840 
06:05	59.5	59.5	59.5	76	51.9	0	2	248	0.00	29.840 
06:10	59.8	59.8	59.8	76	52.2	0	1	248	0.00	29.839 
06:15	60.2	60.2	60.2	75	52.2	0	2	248	0.00	29.838 
06:20	60.7	60.7	60.7	74	52.4	0	2	248	0.00	29.834 
06:25	61.3	61.3	61.3	72	52.2	0	2	248	0.00	29.833 
06:30	61.8	61.8	61.8	71	52.3	0	4	248	0.00	29.831 
06:35	62.3	62.3	62.3	70	52.4	1	3	248	0.00	29.832 
06:40	62.7	62.7	62.7	69	52.4	1	3	292	0.00	29.829 
06:45	63.1	63.1	63.1	68	52.4	1	3	248	0.00	29.825 
06:50	63.5	63.5	63.5	68	52.7	1	3	248	0.00	29.823 
06:55	64.0	64.0	64.0	67	52.8	1	3	248	0.00	29.824 
07:00	64.3	64.3	64.3	67	53.1	1	3	248	0.00	29.822 
07:05	64.7	64.7	64.7	65	52.7	1	4	248	0.00	29.824 
07:10	65.2	65.2	65.2	66	53.5	1	3	248	0.00	29.822 
07:15	65.6	65.6	65.6	65	53.5	1	3	270	0.00	29.822 
07:20	66.1	66.1	66.1	63	53.1	1	5	248	0.00	29.822 
07:25	66.6	66.6	66.6	62	53.2	1	5	248	0.00	29.822 
07:30	67.1	67.1	67.1	61	53.2	1	3	338	0.00	29.822 
07:35	67.6	67.6	67.6	61	53.7	2	4	270	0.00	29.821 
07:40	67.9	67.9	67.9	59	53.0	1	5	248	0.00	29.820 
07:45	68.4	68.4	68.4	58	53.0	2	6	292	0.00	29.819 
07:50	68.9	68.9	68.9	58	53.5	1	3	248	0.00	29.817 
07:55	69.4	69.4	69.4	56	53.0	1	4	248	0.00	29.817 
08:00	69.9	69.9	69.9	54	52.5	2	6	248	0.00	29.808 
08:05	70.3	70.3	70.3	54	52.9	3	7	270	0.00	29.812 
08:10	70.6	70.6	70.6	54	53.1	2	5	248	0.00	29.811 
08:15	70.8	70.8	70.8	53	52.8	3	10	248	0.00	29.809 
08:20	71.3	71.3	71.3	53	53.3	2	4	248	0.00	29.809 
08:25	71.6	71.6	71.6	52	53.0	2	6	270	0.00	29.806 
08:30	72.0	72.0	72.0	52	53.4	3	7	248	0.00	29.807 
08:35	72.3	72.3	72.3	53	54.2	2	5	270	0.00	29.807 
08:40	73.0	73.0	73.0	51	53.8	2	7	248	0.00	29.807 
08:45	73.2	73.2	73.2	50	53.4	3	6	270	0.00	29.806 
08:50	73.2	73.2	73.2	50	53.4	3	6	270	0.00	29.806 
08:55	73.5	73.5	73.5	51	54.2	3	6	270	0.00	29.805 
09:00	74.0	74.0	74.0	50	54.2	2	7	248	0.00	29.801 
09:05	74.4	74.4	74.4	49	54.0	3	6	248	0.00	29.802 
09:10	74.7	74.7	74.7	48	53.7	3	9	248	0.00	29.805 
09:15	74.6	74.6	74.6	47	53.0	4	9	270	0.00	29.800 
09:20	74.9	74.9	74.9	48	53.9	3	6	270	0.00	29.794 
09:25	75.4	75.4	77.8	47	53.7	3	6	248	0.00	29.794 
09:30	75.8	75.8	77.9	47	54.1	3	7	270	0.00	29.791 
09:35	76.3	76.3	78.0	43	52.1	4	7	270	0.00	29.792 
09:40	76.3	76.3	78.0	43	52.1	4	7	270	0.00	29.792 
09:45	76.5	76.5	78.1	42	51.7	4	7	270	0.00	29.791 
09:50	76.7	76.7	78.1	41	51.2	5	11	270	0.00	29.791 
09:55	76.7	76.7	78.1	41	51.2	5	13	270	0.00	29.792 
10:00	77.2	77.2	78.4	41	51.7	4	9	248	0.00	29.794 
10:05	77.2	77.2	78.4	42	52.3	5	10	270	0.00	29.797 
10:10	77.2	77.2	78.3	40	51.0	5	14	270	0.00	29.799 
10:15	77.4	77.4	78.5	41	51.8	4	12	270	0.00	29.797 
10:20	77.6	77.6	78.5	40	51.3	4	9	248	0.00	29.802 
10:25	77.6	77.6	78.5	40	51.3	4	10	270	0.00	29.795 
10:30	78.3	78.3	78.8	39	51.3	3	7	270	0.00	29.794 
10:35	78.6	78.6	78.9	37	50.1	4	9	270	0.00	29.791 
10:40	78.8	78.8	79.1	39	51.7	4	9	248	0.00	29.791 
10:45	78.1	78.1	78.7	39	51.1	5	9	270	0.00	29.791 
10:50	78.3	78.3	78.8	39	51.3	4	12	270	0.00	29.790 
10:55	78.8	78.8	79.0	37	50.3	4	7	248	0.00	29.787 
11:00	79.0	79.0	79.0	35	49.0	5	13	270	0.00	29.784 
11:05	79.4	79.4	79.2	36	50.1	4	14	270	0.00	29.784 
11:10	79.0	79.0	79.2	38	51.2	3	7	248	0.00	29.781 
11:15	79.4	79.4	79.4	38	51.6	4	10	270	0.00	29.778 
11:20	79.2	79.2	79.1	35	49.2	5	11	270	0.00	29.781 
11:25	79.2	79.2	79.2	37	50.7	5	10	270	0.00	29.780 
11:30	79.4	79.4	79.4	38	51.6	4	7	270	0.00	29.777 
11:35	79.9	79.9	79.6	37	51.3	4	6	248	0.00	29.776 
11:40	80.1	80.1	79.8	37	51.5	4	12	270	0.00	29.776 
11:45	79.9	79.9	79.6	37	51.3	5	11	270	0.00	29.776 
11:50	79.8	79.8	79.6	37	51.2	4	7	270	0.00	29.772 
11:55	80.3	80.3	79.9	37	51.6	4	10	270	0.00	29.768 
12:00	81.1	81.1	80.3	35	50.8	3	5	270	0.00	29.762 
12:05	81.6	81.6	80.5	33	49.7	4	9	270	0.00	29.760 
12:10	80.1	80.1	79.8	37	51.5	5	10	270	0.00	29.762 
12:15	79.9	79.9	79.8	39	52.7	4	7	270	0.00	29.761 
12:20	80.1	80.1	79.8	37	51.5	4	10	270	0.00	29.759 
12:25	80.5	80.5	79.9	35	50.3	5	14	270	0.00	29.757 
12:30	80.3	80.3	79.7	35	50.1	4	9	270	0.00	29.753 
12:35	79.8	79.8	79.5	36	50.4	5	12	270	0.00	29.751 
12:40	79.4	79.4	79.5	39	52.3	4	10	270	0.00	29.750 
12:45	79.8	79.8	79.7	39	52.6	4	10	270	0.00	29.744 
12:50	80.7	80.7	80.2	37	52.0	4	9	270	0.00	29.744 
12:55	80.7	80.7	80.2	37	52.0	5	9	270	0.00	29.745 
13:00	80.7	80.7	80.2	38	52.7	4	8	270	0.00	29.741 
13:05	80.9	80.9	80.2	36	51.4	4	12	270	0.00	29.741 
13:10	81.4	81.4	80.6	36	51.9	4	9	270	0.00	29.737 
13:15	82.0	82.0	81.1	37	53.1	4	12	270	0.00	29.732 
13:20	81.8	81.8	80.9	36	52.2	4	11	270	0.00	29.731 
13:25	82.0	82.0	80.9	35	51.6	4	11	270	0.00	29.729 
13:30	82.4	82.4	81.2	35	52.0	4	11	270	0.00	29.726 
13:35	82.2	82.2	81.0	34	51.0	4	7	270	0.00	29.727 
13:40	82.4	82.4	81.0	33	50.4	4	9	270	0.00	29.723 
13:45	83.0	83.0	81.4	32	50.1	3	7	270	0.00	29.724 
13:50	83.0	83.0	81.4	32	50.1	4	13	270	0.00	29.718 
13:55	83.2	83.2	81.6	32	50.2	4	9	270	0.00	29.715 
14:00	83.2	83.2	81.6	32	50.2	4	12	270	0.00	29.716 
14:05	82.8	82.8	81.4	34	51.5	3	6	248	0.00	29.714 
14:10	83.0	83.0	81.6	34	51.7	3	9	270	0.00	29.714 
14:15	83.6	83.6	82.1	34	52.2	3	6	248	0.00	29.713 
14:20	84.3	84.3	82.5	32	51.2	3	7	270	0.00	29.712 
14:25	84.7	84.7	82.7	31	50.7	4	9	248	0.00	29.710 
14:30	84.5	84.5	82.4	30	49.6	4	11	270	0.00	29.710 
14:35	84.1	84.1	82.2	31	50.2	4	7	270	0.00	29.709 
14:40	83.6	83.6	81.9	32	50.6	3	7	270	0.00	29.706 
14:45	83.6	83.6	82.0	33	51.4	3	9	270	0.00	29.707 
14:50	83.6	83.6	81.8	31	49.7	3	6	248	0.00	29.706 
14:55	83.4	83.4	81.6	31	49.6	4	7	270	0.00	29.708 
15:00	83.6	83.6	81.9	32	50.6	4	10	270	0.00	29.705 
15:05	83.4	83.4	81.6	31	49.6	4	11	270	0.00	29.701 
15:10	82.4	82.4	80.9	32	49.5	4	11	270	0.00	29.698 
15:15	82.6	82.6	81.2	33	50.6	3	5	270	0.00	29.699 
15:20	83.0	83.0	81.4	32	50.1	3	8	270	0.00	29.697 
15:25	83.8	83.8	81.9	31	49.9	4	7	270	0.00	29.696 
15:30	84.1	84.1	82.2	31	50.2	4	10	248	0.00	29.694 
15:35	84.3	84.3	82.3	30	49.5	4	11	270	0.00	29.695 
15:40	84.1	84.1	82.2	31	50.2	4	9	270	0.00	29.688 
15:45	84.0	84.0	82.1	31	50.1	4	11	248	0.00	29.684 
15:50	84.1	84.1	82.3	32	51.0	3	7	248	0.00	29.684 
15:55	84.3	84.3	82.5	32	51.2	3	9	270	0.00	29.683 
16:00	84.9	84.9	82.9	31	50.9	4	9	270	0.00	29.681 
16:05	85.3	85.3	83.4	32	52.1	3	5	248	0.00	29.681 
16:10	85.7	85.7	83.6	31	51.5	3	5	270	0.00	29.679 
16:15	85.7	85.7	83.5	30	50.7	4	14	270	0.00	29.680 
16:20	85.5	85.5	83.4	31	51.4	3	7	270	0.00	29.678 
16:25	85.3	85.3	83.2	31	51.2	4	10	270	0.00	29.679 
16:30	85.7	85.7	83.4	29	49.7	3	10	248	0.00	29.677 
16:35	85.1	85.1	82.9	30	50.1	5	9	270	0.00	29.681 
16:40	84.5	84.5	82.5	31	50.5	4	10	270	0.00	29.680 
16:45	84.3	84.3	82.5	32	51.2	4	7	270	0.00	29.681 
16:50	84.3	84.3	82.5	32	51.2	4	10	270	0.00	29.681 
16:55	84.5	84.5	82.8	33	52.2	3	12	270	0.00	29.681 
17:00	85.1	85.1	83.2	32	51.9	4	7	270	0.00	29.681 
17:05	84.5	84.5	82.6	32	51.4	4	10	270	0.00	29.681 
17:10	84.0	84.0	82.2	32	50.9	6	12	270	0.00	29.686 
17:15	83.8	83.8	82.2	33	51.6	4	11	270	0.00	29.689 
17:20	83.2	83.2	81.7	33	51.1	4	9	270	0.00	29.689 
17:25	83.0	83.0	81.7	35	52.5	4	10	270	0.00	29.688 
17:30	82.8	82.8	81.6	35	52.3	4	12	270	0.00	29.685 
17:35	82.8	82.8	81.6	35	52.3	4	7	270	0.00	29.682 
17:40	82.8	82.8	81.6	35	52.3	4	7	270	0.00	29.685 
17:45	82.4	82.4	81.2	35	52.0	3	6	270	0.00	29.682 
17:50	82.4	82.4	81.3	36	52.7	3	6	248	0.00	29.681 
17:55	82.6	82.6	81.6	37	53.7	4	11	270	0.00	29.678 
18:00	82.4	82.4	81.6	38	54.2	4	7	270	0.00	29.678 
18:05	82.6	82.6	81.7	38	54.4	4	12	270	0.00	29.671 
18:10	82.4	82.4	81.7	39	54.9	4	7	270	0.00	29.670 
18:15	82.2	82.2	81.5	39	54.7	3	7	270	0.00	29.668 
18:20	82.2	82.2	81.6	40	55.4	3	6	248	0.00	29.672 
18:25	82.4	82.4	81.7	39	54.9	3	5	270	0.00	29.670 
18:30	82.6	82.6	81.8	39	55.1	3	6	270	0.00	29.670 
18:35	82.6	82.6	82.0	40	55.8	3	7	270	0.00	29.670 
18:40	82.2	82.2	81.7	41	56.1	4	7	270	0.00	29.667 
18:45	82.0	82.0	81.6	41	55.9	3	7	248	0.00	29.667 
18:50	81.8	81.8	81.5	42	56.4	4	11	270	0.00	29.666 
18:55	81.6	81.6	81.3	42	56.3	3	7	270	0.00	29.667 
19:00	81.6	81.6	81.5	43	56.9	2	4	270	0.00	29.665 
19:05	81.4	81.4	81.3	43	56.7	4	9	270	0.00	29.659 
19:10	81.2	81.2	81.1	43	56.5	3	7	248	0.00	29.663 
19:15	81.1	81.1	81.1	44	57.1	4	7	248	0.00	29.662 
19:20	80.7	80.7	80.8	44	56.7	4	12	248	0.00	29.664 
19:25	80.5	80.5	80.7	45	57.2	3	10	248	0.00	29.666 
19:30	80.7	80.7	80.9	45	57.4	2	4	248	0.00	29.665 
19:35	80.3	80.3	80.6	45	57.0	2	6	270	0.00	29.666 
19:40	80.3	80.3	80.7	46	57.6	3	6	248	0.00	29.666 
19:45	80.3	80.3	80.7	46	57.6	2	6	248	0.00	29.667 
19:50	80.1	80.1	80.5	46	57.4	2	7	270	0.00	29.669 
19:55	80.3	80.3	80.7	46	57.6	3	8	270	0.00	29.670 
20:00	80.3	80.3	80.7	46	57.6	2	5	270	0.00	29.671 
20:05	80.1	80.1	81.0	51	60.3	2	5	270	0.00	29.685 
20:10	76.5	76.5	78.3	63	62.9	2	4	292	0.01	29.702 
20:15	72.0	72.0	72.0	78	64.8	1	4	292	0.10	29.710 
20:20	69.8	69.8	69.8	84	64.7	0	3	292	0.06	29.705 
20:25	68.8	68.8	68.8	88	65.1	0	1	292	0.01	29.706 
20:30	68.4	68.4	68.4	90	65.3	0	1	292	0.00	29.706 
20:35	68.3	68.3	68.3	91	65.6	0	0	---	0.00	29.704 
20:40	68.1	68.1	68.1	92	65.7	0	0	---	0.00	29.706 
20:45	68.1	68.1	68.1	92	65.7	0	1	292	0.00	29.707 
20:50	68.1	68.1	68.1	93	66.0	0	0	---	0.00	29.708 
20:55	68.1	68.1	68.1	93	66.0	0	0	---	0.00	29.708 
21:00	68.1	68.1	68.1	94	66.3	0	0	---	0.00	29.708 
21:05	68.1	68.1	68.1	94	66.3	0	1	292	0.00	29.711 
21:10	68.1	68.1	68.1	94	66.3	0	1	292	0.01	29.708 
21:15	67.9	67.9	67.9	94	66.1	0	0	---	0.00	29.709 
21:20	67.8	67.8	67.8	94	66.0	0	0	---	0.00	29.709 
21:25	67.8	67.8	67.8	94	66.0	0	0	---	0.00	29.709 
21:30	67.6	67.6	67.6	95	66.1	0	0	---	0.00	29.711 
21:35	67.6	67.6	67.6	95	66.1	0	0	---	0.00	29.716 
21:40	67.8	67.8	67.8	95	66.3	0	0	---	0.00	29.715 
21:45	67.8	67.8	67.8	95	66.3	0	0	---	0.00	29.718 
21:50	67.8	67.8	67.8	95	66.3	0	0	---	0.00	29.720 
21:55	67.8	67.8	67.8	96	66.6	0	0	---	0.00	29.720 
22:00	67.9	67.9	67.9	96	66.7	0	0	---	0.00	29.722 
22:05	67.9	67.9	67.9	96	66.7	0	0	---	0.00	29.722 
22:10	67.8	67.8	67.8	96	66.6	0	0	---	0.00	29.725 
22:15	67.6	67.6	67.6	95	66.1	0	0	---	0.00	29.726 
22:20	67.4	67.4	67.4	95	65.9	0	0	---	0.00	29.728 
22:25	67.4	67.4	67.4	95	65.9	0	0	---	0.00	29.728 
22:30	67.3	67.3	67.3	96	66.1	0	0	---	0.00	29.726 
22:35	67.1	67.1	67.1	95	65.6	0	0	---	0.00	29.723 
22:40	67.1	67.1	67.1	96	65.9	0	0	---	0.00	29.726 
22:45	67.1	67.1	67.1	96	65.9	0	0	---	0.00	29.726 
22:50	66.9	66.9	66.9	96	65.7	0	0	---	0.00	29.731 
22:55	66.9	66.9	66.9	96	65.7	0	0	---	0.00	29.730 
23:00	66.8	66.8	66.8	96	65.6	0	0	---	0.00	29.733 
23:05	66.6	66.6	66.6	96	65.4	0	0	---	0.00	29.731 
23:10	66.6	66.6	66.6	96	65.4	0	0	---	0.00	29.732 
23:15	66.6	66.6	66.6	96	65.4	0	0	---	0.00	29.732 
23:20	66.6	66.6	66.6	96	65.4	0	0	---	0.00	29.733 
23:25	66.6	66.6	66.6	96	65.4	0	0	---	0.00	29.731 
23:30	66.8	66.8	66.8	96	65.6	0	0	---	0.00	29.733 
23:35	66.8	66.8	66.8	96	65.6	0	0	---	0.00	29.734 
23:40	66.6	66.6	66.6	96	65.4	0	0	---	0.00	29.734 
23:45	66.4	66.4	66.4	96	65.2	0	0	---	0.00	29.733 
23:50	66.3	66.3	66.3	96	65.1	0	0	---	0.00	29.735 
23:55	66.1	66.1	66.1	96	64.9	0	0	---	0.00	29.735 

CoCoRaHS
IN-AL-39
A2 Web Hosting
Creative Commons License
GoDaddy
Look for:

loaded 2017-12-11 06:49:32 • last modified 2010-11-18 10:43:29
Privacy PolicyDisclaimer
• wx.awcolley.com is powered by PmWiki v.2002016 •
• all content (unless otherwise noted) © 2017 A W Colley